createdAt,value
2019-02-11T00:00:36.463Z,72.76
2019-02-11T00:03:04.786Z,73.51
2019-02-11T00:05:33.033Z,73.88
2019-02-11T00:08:01.283Z,74.35
2019-02-11T00:10:29.550Z,74.35
2019-02-11T00:12:57.835Z,74.36
2019-02-11T00:15:26.097Z,75.13
2019-02-11T00:17:54.415Z,75.35
2019-02-11T00:20:22.670Z,75.09
2019-02-11T00:22:50.932Z,75.68
2019-02-11T00:25:19.449Z,75.45
2019-02-11T00:27:47.728Z,75.95
2019-02-11T00:30:15.987Z,75.79
2019-02-11T00:32:44.303Z,75.81
2019-02-11T00:35:12.538Z,76.15
2019-02-11T00:37:40.837Z,76.46
2019-02-11T00:40:09.094Z,76.92
2019-02-11T00:42:37.385Z,76.82
2019-02-11T00:45:07.277Z,76.90
2019-02-11T00:47:35.618Z,77.20
2019-02-11T00:50:05.427Z,77.62
2019-02-11T00:52:33.679Z,77.16
2019-02-11T00:55:01.979Z,77.74
2019-02-11T00:57:30.238Z,77.68
2019-02-11T00:59:58.486Z,77.45
2019-02-11T01:02:26.770Z,77.55
2019-02-11T01:04:55.032Z,78.64
2019-02-11T01:07:23.303Z,78.01
2019-02-11T01:09:51.631Z,78.63
2019-02-11T01:12:20.149Z,78.49
2019-02-11T01:14:48.398Z,77.97
2019-02-11T01:17:16.722Z,78.69
2019-02-11T01:19:44.989Z,78.53
2019-02-11T01:22:13.239Z,78.74
2019-02-11T01:24:41.526Z,78.49
2019-02-11T01:27:09.792Z,78.84
2019-02-11T01:29:38.121Z,78.64
2019-02-11T01:32:06.370Z,78.42
2019-02-11T01:34:34.630Z,78.71
2019-02-11T01:37:02.888Z,78.70
2019-02-11T01:39:31.241Z,79.30
2019-02-11T01:41:59.538Z,78.71
2019-02-11T01:44:27.790Z,79.19
2019-02-11T01:46:56.043Z,79.08
2019-02-11T01:49:24.353Z,79.73
2019-02-11T01:51:52.643Z,80.02
2019-02-11T01:54:20.939Z,80.23
2019-02-11T01:56:49.186Z,79.77
2019-02-11T01:59:17.439Z,79.51
2019-02-11T02:01:45.732Z,79.21
2019-02-11T02:04:14.046Z,79.67
2019-02-11T02:06:42.294Z,80.22
2019-02-11T02:09:10.952Z,80.56
2019-02-11T02:11:39.238Z,80.97
2019-02-11T02:14:07.497Z,80.91
2019-02-11T02:16:35.781Z,80.84
2019-02-11T02:19:04.036Z,81.06
2019-02-11T02:21:32.326Z,81.16
2019-02-11T02:24:00.584Z,81.10
2019-02-11T02:26:28.840Z,80.81
2019-02-11T02:28:57.153Z,81.37
2019-02-11T02:31:25.442Z,81.50
2019-02-11T02:33:53.696Z,81.36
2019-02-11T02:36:21.975Z,81.19
2019-02-11T02:38:50.278Z,80.96
2019-02-11T02:41:18.557Z,81.55
2019-02-11T02:43:55.225Z,81.38
2019-02-11T02:46:16.828Z,81.38
2019-02-11T02:48:45.079Z,81.51
2019-02-11T02:51:13.374Z,81.29
2019-02-11T02:53:41.631Z,81.61
2019-02-11T02:56:09.927Z,81.37
2019-02-11T02:58:38.177Z,81.08
2019-02-11T03:01:06.421Z,81.03
2019-02-11T03:03:34.694Z,81.40
2019-02-11T03:06:02.962Z,81.39
2019-02-11T03:08:31.242Z,80.95
2019-02-11T03:10:59.492Z,81.00
2019-02-11T03:13:27.743Z,80.93
2019-02-11T03:15:56.018Z,81.01
2019-02-11T03:18:24.266Z,80.85
2019-02-11T03:20:52.549Z,80.74
2019-02-11T03:23:20.826Z,81.13
2019-02-11T03:25:49.086Z,80.73
2019-02-11T03:28:17.536Z,80.58
2019-02-11T03:30:45.797Z,80.41
2019-02-11T03:33:14.073Z,80.30
2019-02-11T03:35:42.328Z,80.35
2019-02-11T03:38:10.591Z,80.24
2019-02-11T03:40:38.845Z,80.82
2019-02-11T03:43:07.125Z,81.16
2019-02-11T03:45:35.381Z,81.06
2019-02-11T03:48:03.647Z,81.00
2019-02-11T03:50:31.898Z,80.90
2019-02-11T03:53:00.177Z,80.88
2019-02-11T03:55:28.440Z,80.71
2019-02-11T03:57:56.714Z,80.50
2019-02-11T04:00:25.022Z,80.73
2019-02-11T04:02:53.277Z,80.98
2019-02-11T04:05:21.548Z,81.31
2019-02-11T04:07:49.819Z,81.10
2019-02-11T04:10:18.067Z,80.81
2019-02-11T04:12:46.349Z,80.72
2019-02-11T04:15:14.646Z,80.65
2019-02-11T04:17:42.891Z,80.69
2019-02-11T04:20:11.137Z,81.31
2019-02-11T04:22:39.431Z,81.37
2019-02-11T04:25:07.851Z,81.09
2019-02-11T04:27:36.144Z,81.48
2019-02-11T04:30:05.827Z,81.11
2019-02-11T04:32:34.079Z,80.84
2019-02-11T04:35:02.364Z,80.95
2019-02-11T04:37:30.705Z,81.37
2019-02-11T04:39:58.920Z,81.48
2019-02-11T04:42:27.187Z,81.18
2019-02-11T04:44:55.471Z,80.90
2019-02-11T04:47:23.725Z,81.10
2019-02-11T04:49:52.028Z,81.04
2019-02-11T04:52:20.279Z,81.24
2019-02-11T04:54:48.601Z,81.47
2019-02-11T04:57:16.874Z,81.63
2019-02-11T04:59:45.156Z,81.13
2019-02-11T05:02:13.427Z,81.34
2019-02-11T05:04:41.676Z,81.65
2019-02-11T05:07:10.002Z,81.44
2019-02-11T05:09:38.247Z,81.19
2019-02-11T05:12:06.501Z,81.56
2019-02-11T05:14:43.227Z,81.30
2019-02-11T05:17:04.746Z,81.98
2019-02-11T05:19:33.027Z,81.66
2019-02-11T05:22:01.278Z,81.69
2019-02-11T05:24:29.565Z,81.61
2019-02-11T05:26:57.836Z,81.52
2019-02-11T05:29:26.093Z,81.28
2019-02-11T05:31:54.458Z,81.70
2019-02-11T05:34:22.712Z,81.59
2019-02-11T05:36:50.972Z,81.77
2019-02-11T05:39:19.254Z,81.70
2019-02-11T05:41:47.502Z,82.17
2019-02-11T05:44:15.830Z,82.28
2019-02-11T05:46:44.086Z,82.28
2019-02-11T05:49:12.338Z,82.94
2019-02-11T05:51:40.604Z,82.66
2019-02-11T05:54:08.851Z,82.11
2019-02-11T05:56:37.119Z,82.20
2019-02-11T05:59:05.383Z,82.38
2019-02-11T06:01:33.927Z,82.23
2019-02-11T06:04:02.182Z,81.96
2019-02-11T06:06:30.463Z,81.72
2019-02-11T06:08:58.723Z,81.80
2019-02-11T06:11:27.015Z,81.89
2019-02-11T06:13:55.261Z,82.30
2019-02-11T06:16:23.546Z,81.96
2019-02-11T06:18:51.809Z,82.02
2019-02-11T06:21:20.101Z,82.05
2019-02-11T06:23:48.431Z,81.83
2019-02-11T06:26:16.716Z,82.79
2019-02-11T06:28:44.970Z,82.98
2019-02-11T06:31:13.246Z,82.33
2019-02-11T06:33:41.505Z,82.13
2019-02-11T06:36:12.502Z,81.77
2019-02-11T06:38:39.790Z,81.72
2019-02-11T06:41:08.027Z,81.88
2019-02-11T06:43:36.308Z,81.93
2019-02-11T06:46:04.584Z,81.49
2019-02-11T06:48:32.981Z,81.55
2019-02-11T06:51:01.268Z,81.79
2019-02-11T06:53:29.520Z,81.71
2019-02-11T06:55:57.802Z,81.43
2019-02-11T06:58:26.102Z,81.12
2019-02-11T07:00:54.358Z,81.14
2019-02-11T07:03:22.861Z,80.98
2019-02-11T07:05:51.177Z,80.98
2019-02-11T07:08:19.415Z,80.68
2019-02-11T07:10:55.261Z,80.80
2019-02-11T07:13:17.671Z,80.69
2019-02-11T07:15:45.931Z,80.55
2019-02-11T07:18:14.205Z,80.59
2019-02-11T07:20:42.467Z,80.68
2019-02-11T07:23:10.770Z,80.58
2019-02-11T07:25:39.025Z,80.42
2019-02-11T07:28:07.447Z,80.23
2019-02-11T07:30:35.782Z,80.03
2019-02-11T07:33:04.048Z,79.90
2019-02-11T07:35:32.346Z,79.79
2019-02-11T07:38:00.600Z,79.69
2019-02-11T07:40:29.146Z,79.48
2019-02-11T07:42:59.081Z,79.43
2019-02-11T07:45:37.820Z,79.33
2019-02-11T07:48:06.169Z,79.50
2019-02-11T07:50:34.422Z,79.41
2019-02-11T07:53:02.817Z,79.08
2019-02-11T07:55:31.075Z,78.97
2019-02-11T07:57:59.327Z,79.08
2019-02-11T08:00:27.642Z,79.84
2019-02-11T08:02:55.891Z,79.32
2019-02-11T08:05:24.180Z,79.06
2019-02-11T08:07:52.438Z,78.82
2019-02-11T08:10:20.772Z,78.64
2019-02-11T08:12:49.039Z,78.95
2019-02-11T08:15:17.293Z,78.92
2019-02-11T08:17:46.822Z,78.67
2019-02-11T08:20:15.224Z,79.20
2019-02-11T08:22:43.526Z,79.34
2019-02-11T08:25:11.779Z,79.73
2019-02-11T08:27:40.035Z,79.89
2019-02-11T08:30:10.463Z,80.10
2019-02-11T08:32:38.727Z,80.15
2019-02-11T08:35:07.855Z,80.10
2019-02-11T08:37:36.148Z,80.16
2019-02-11T08:40:07.093Z,80.40
2019-02-11T08:42:36.235Z,80.50
2019-02-11T08:45:06.659Z,80.33
2019-02-11T08:47:34.916Z,80.21
2019-02-11T08:50:04.054Z,80.24
2019-02-11T08:52:32.309Z,80.27
2019-02-11T08:55:00.610Z,80.08
2019-02-11T08:57:28.875Z,80.47
2019-02-11T08:59:57.137Z,80.09
2019-02-11T09:02:25.437Z,80.22
2019-02-11T09:04:53.691Z,80.16
2019-02-11T09:07:21.949Z,79.76
2019-02-11T09:09:50.311Z,79.44
2019-02-11T09:12:18.569Z,79.46
2019-02-11T09:14:46.870Z,79.51
2019-02-11T09:17:15.123Z,79.28
2019-02-11T09:19:43.413Z,79.05
2019-02-11T09:22:11.677Z,79.31
2019-02-11T09:24:39.996Z,79.33
2019-02-11T09:27:08.248Z,79.42
2019-02-11T09:29:36.508Z,79.71
2019-02-11T09:32:04.789Z,79.37
2019-02-11T09:34:33.053Z,79.15
2019-02-11T09:37:01.344Z,79.30
2019-02-11T09:39:29.596Z,79.40
2019-02-11T09:41:57.886Z,79.31
2019-02-11T09:44:29.643Z,79.27
2019-02-11T09:46:56.186Z,79.35
2019-02-11T09:49:24.475Z,79.11
2019-02-11T09:51:53.267Z,79.47
2019-02-11T09:54:21.556Z,79.08
2019-02-11T09:56:49.816Z,78.87
2019-02-11T09:59:18.079Z,78.53
2019-02-11T10:01:46.342Z,78.28
2019-02-11T10:04:14.670Z,78.45
2019-02-11T10:06:42.959Z,78.24
2019-02-11T10:09:11.242Z,78.59
2019-02-11T10:11:39.495Z,78.43
2019-02-11T10:14:07.769Z,77.76
2019-02-11T10:16:36.027Z,77.20
2019-02-11T10:19:04.304Z,76.07
2019-02-11T10:21:33.912Z,75.78
2019-02-11T10:24:02.289Z,75.50
2019-02-11T10:26:30.557Z,74.50
2019-02-11T10:28:58.881Z,73.41
2019-02-11T10:31:27.142Z,73.63
2019-02-11T10:33:55.397Z,73.06
2019-02-11T10:36:23.686Z,72.99
2019-02-11T10:38:51.951Z,73.13
2019-02-11T10:41:20.245Z,72.72
2019-02-11T10:43:48.512Z,72.23
2019-02-11T10:46:20.954Z,72.77
2019-02-11T10:48:46.802Z,72.38
2019-02-11T10:51:15.429Z,72.47
2019-02-11T10:53:43.756Z,71.60
2019-02-11T10:56:12.552Z,72.47
2019-02-11T10:58:40.833Z,72.54
2019-02-11T11:01:09.097Z,72.73
2019-02-11T11:03:37.352Z,72.16
2019-02-11T11:06:05.653Z,71.75
2019-02-11T11:08:33.983Z,71.42
2019-02-11T11:11:02.257Z,71.19
2019-02-11T11:13:30.537Z,71.19
2019-02-11T11:15:58.805Z,71.93
2019-02-11T11:18:27.089Z,69.93
2019-02-11T11:20:55.351Z,69.68
2019-02-11T11:23:23.637Z,69.23
2019-02-11T11:25:51.894Z,68.39
2019-02-11T11:28:20.192Z,67.17
2019-02-11T11:30:48.447Z,65.83
2019-02-11T11:33:16.704Z,65.04
2019-02-11T11:35:45.001Z,65.68
2019-02-11T11:38:13.299Z,65.17
2019-02-11T11:40:41.634Z,65.06
2019-02-11T11:43:09.923Z,64.07
2019-02-11T11:45:38.217Z,64.15
2019-02-11T11:48:06.474Z,63.69
2019-02-11T11:50:34.750Z,63.44
2019-02-11T11:53:03.029Z,62.51
2019-02-11T11:55:31.291Z,62.89
2019-02-11T11:57:59.578Z,61.99
2019-02-11T12:00:30.044Z,63.00
2019-02-11T12:03:02.738Z,63.60
2019-02-11T12:05:28.369Z,61.56
2019-02-11T12:07:56.614Z,60.91
2019-02-11T12:10:24.946Z,61.12
2019-02-11T12:12:53.240Z,61.12
2019-02-11T12:15:23.460Z,61.83
2019-02-11T12:17:51.808Z,61.84
2019-02-11T12:20:20.065Z,60.29
2019-02-11T12:22:48.402Z,61.40
2019-02-11T12:25:17.913Z,60.58
2019-02-11T12:27:46.171Z,60.75
2019-02-11T12:30:19.794Z,61.87
2019-02-11T12:32:48.055Z,61.95
2019-02-11T12:35:16.338Z,61.87
2019-02-11T12:37:44.596Z,62.05
2019-02-11T12:40:12.961Z,62.47
2019-02-11T12:42:41.217Z,62.45
2019-02-11T12:45:18.111Z,62.60
2019-02-11T12:47:46.415Z,63.32
2019-02-11T12:50:18.544Z,63.72
2019-02-11T12:52:46.790Z,63.76
2019-02-11T12:55:16.280Z,64.30
2019-02-11T12:57:44.638Z,64.92
2019-02-11T13:00:20.935Z,64.74
2019-02-11T13:02:49.192Z,64.21
2019-02-11T13:05:22.127Z,65.19
2019-02-11T13:07:47.530Z,65.12
2019-02-11T13:10:18.487Z,64.76
2019-02-11T13:12:46.752Z,65.13
2019-02-11T13:15:41.504Z,66.12
2019-02-11T13:17:46.194Z,64.56
2019-02-11T13:20:16.833Z,64.62
2019-02-11T13:22:45.139Z,64.95
2019-02-11T13:25:15.814Z,65.69
2019-02-11T13:27:44.121Z,67.05
2019-02-11T13:30:18.418Z,66.32
2019-02-11T13:32:46.666Z,67.38
2019-02-11T13:35:14.934Z,67.14
2019-02-11T13:37:43.200Z,66.92
2019-02-11T13:40:11.519Z,67.13
2019-02-11T13:42:39.872Z,69.03
2019-02-11T13:45:11.418Z,69.17
2019-02-11T13:47:52.230Z,69.25
2019-02-11T13:50:12.293Z,69.43
2019-02-11T13:52:40.553Z,70.12
2019-02-11T13:55:09.117Z,68.56
2019-02-11T13:57:37.436Z,68.38
2019-02-11T14:00:15.829Z,67.28
2019-02-11T14:02:52.630Z,67.23
2019-02-11T14:05:20.894Z,66.77
2019-02-11T14:07:49.211Z,66.57
2019-02-11T14:10:17.488Z,65.88
2019-02-11T14:12:46.098Z,65.74
2019-02-11T14:15:16.555Z,65.82
2019-02-11T14:17:44.380Z,65.80
2019-02-11T14:20:15.911Z,66.11
2019-02-11T14:22:44.161Z,66.18
2019-02-11T14:25:12.418Z,66.50
2019-02-11T14:27:40.699Z,65.36
2019-02-11T14:30:15.435Z,65.56
2019-02-11T14:32:43.702Z,65.77
2019-02-11T14:35:11.950Z,65.70
2019-02-11T14:37:40.252Z,66.80
2019-02-11T14:40:10.242Z,67.25
2019-02-11T14:42:38.539Z,67.12
2019-02-11T14:45:17.766Z,66.98
2019-02-11T14:47:46.138Z,67.39
2019-02-11T14:50:14.337Z,67.72
2019-02-11T14:52:42.586Z,68.14
2019-02-11T14:55:11.287Z,68.58
2019-02-11T14:57:39.566Z,69.25
2019-02-11T15:00:18.079Z,69.28
2019-02-11T15:02:46.410Z,69.29
2019-02-11T15:05:14.760Z,69.97
2019-02-11T15:07:43.051Z,69.92
2019-02-11T15:10:12.558Z,69.56
2019-02-11T15:12:40.840Z,69.22
2019-02-11T15:15:10.626Z,69.23
2019-02-11T15:17:40.326Z,69.57
2019-02-11T15:20:10.617Z,69.81
2019-02-11T15:22:38.914Z,69.65
2019-02-11T15:25:10.111Z,69.26
2019-02-11T15:27:38.370Z,69.10
2019-02-11T15:30:12.136Z,68.52
2019-02-11T15:32:40.464Z,68.30
2019-02-11T15:35:09.223Z,68.60
2019-02-11T15:37:37.475Z,69.50
2019-02-11T15:40:08.958Z,69.30
2019-02-11T15:42:37.204Z,69.78
2019-02-11T15:45:08.796Z,70.00
2019-02-11T15:47:37.076Z,69.64
2019-02-11T15:50:08.546Z,70.37
2019-02-11T15:52:36.795Z,70.25
2019-02-11T15:55:08.188Z,70.02
2019-02-11T15:57:36.443Z,69.90
2019-02-11T16:00:07.979Z,70.16
2019-02-11T16:02:36.238Z,70.53
2019-02-11T16:05:06.836Z,70.47
2019-02-11T16:07:35.161Z,70.53
2019-02-11T16:10:03.985Z,70.84
2019-02-11T16:12:32.273Z,71.90
2019-02-11T16:15:00.530Z,71.43
2019-02-11T16:17:28.790Z,72.23
2019-02-11T16:19:57.044Z,71.59
2019-02-11T16:22:25.337Z,71.72
2019-02-11T16:24:53.588Z,71.28
2019-02-11T16:27:21.873Z,71.65
2019-02-11T16:29:50.193Z,71.28
2019-02-11T16:32:18.510Z,71.74
2019-02-11T16:34:46.767Z,71.83
2019-02-11T16:37:15.031Z,71.47
2019-02-11T16:39:43.326Z,71.73
2019-02-11T16:42:11.613Z,71.03
2019-02-11T16:44:39.896Z,70.79
2019-02-11T16:47:08.159Z,70.42
2019-02-11T16:49:36.438Z,70.34
2019-02-11T16:52:04.693Z,70.38
2019-02-11T16:54:32.981Z,70.50
2019-02-11T16:57:01.249Z,70.59
2019-02-11T16:59:29.544Z,70.66
2019-02-11T17:01:57.810Z,70.28
2019-02-11T17:04:26.126Z,70.14
2019-02-11T17:06:54.383Z,70.48
2019-02-11T17:09:22.640Z,70.63
2019-02-11T17:11:50.933Z,70.37
2019-02-11T17:14:19.185Z,70.19
2019-02-11T17:16:47.476Z,70.06
2019-02-11T17:19:15.735Z,70.23
2019-02-11T17:21:44.009Z,70.23
2019-02-11T17:24:12.307Z,70.56
2019-02-11T17:26:40.561Z,71.30
2019-02-11T17:29:08.861Z,71.00
2019-02-11T17:31:37.117Z,71.23
2019-02-11T17:34:05.385Z,71.08
2019-02-11T17:36:33.651Z,70.78
2019-02-11T17:39:01.940Z,71.07
2019-02-11T17:41:30.206Z,71.68
2019-02-11T17:43:58.493Z,71.43
2019-02-11T17:46:26.747Z,71.87
2019-02-11T17:48:55.045Z,71.44
2019-02-11T17:51:23.291Z,72.04
2019-02-11T17:53:51.552Z,71.13
2019-02-11T17:56:19.930Z,71.20
2019-02-11T17:58:48.186Z,71.50
2019-02-11T18:01:16.532Z,71.42
2019-02-11T18:03:44.785Z,71.19
2019-02-11T18:06:13.079Z,70.96
2019-02-11T18:08:41.359Z,70.63
2019-02-11T18:11:09.617Z,71.16
2019-02-11T18:13:37.905Z,70.76
2019-02-11T18:16:06.161Z,70.36
2019-02-11T18:18:34.444Z,70.18
2019-02-11T18:21:02.795Z,69.98
2019-02-11T18:23:31.242Z,70.27
2019-02-11T18:25:59.497Z,69.06
2019-02-11T18:28:27.800Z,69.36
2019-02-11T18:30:56.050Z,69.20
2019-02-11T18:33:24.352Z,69.27
2019-02-11T18:35:52.644Z,68.62
2019-02-11T18:38:20.897Z,67.91
2019-02-11T18:40:49.175Z,68.04
2019-02-11T18:43:17.436Z,68.20
2019-02-11T18:45:45.956Z,67.90
2019-02-11T18:48:14.262Z,67.95
2019-02-11T18:50:42.518Z,67.70
2019-02-11T18:53:10.814Z,68.12
2019-02-11T18:55:39.111Z,68.64
2019-02-11T18:58:07.412Z,68.29
2019-02-11T19:00:36.183Z,67.98
2019-02-11T19:03:04.514Z,68.13
2019-02-11T19:05:32.808Z,68.05
2019-02-11T19:08:01.077Z,69.39
2019-02-11T19:10:29.437Z,70.59
2019-02-11T19:12:57.691Z,72.10
2019-02-11T19:15:26.120Z,72.38
2019-02-11T19:17:54.401Z,72.44
2019-02-11T19:20:22.657Z,71.84
2019-02-11T19:22:50.949Z,72.04
2019-02-11T19:25:19.237Z,72.92
2019-02-11T19:27:47.599Z,72.90
2019-02-11T19:30:40.930Z,72.70
2019-02-11T19:33:09.155Z,71.76
2019-02-11T19:35:37.462Z,70.17
2019-02-11T19:38:05.721Z,70.51
2019-02-11T19:40:33.978Z,68.80
2019-02-11T19:43:02.260Z,68.92
2019-02-11T19:45:30.512Z,68.72
2019-02-11T19:47:58.778Z,68.15
2019-02-11T19:50:27.025Z,67.98
2019-02-11T19:52:55.313Z,67.70
2019-02-11T19:55:23.600Z,67.65
2019-02-11T19:57:51.853Z,67.34
2019-02-11T20:00:21.205Z,67.71
2019-02-11T20:02:50.401Z,67.95
2019-02-11T20:05:18.665Z,67.55
2019-02-11T20:07:47.010Z,67.20
2019-02-11T20:10:21.415Z,67.51
2019-02-11T20:12:49.702Z,67.62
2019-02-11T20:15:25.885Z,66.46
2019-02-11T20:17:54.199Z,66.93
2019-02-11T20:20:22.921Z,66.02
2019-02-11T20:22:51.190Z,66.79
2019-02-11T20:25:19.440Z,66.31
2019-02-11T20:27:47.726Z,64.54
2019-02-11T20:30:18.844Z,65.03
2019-02-11T20:32:47.108Z,65.71
2019-02-11T20:35:15.438Z,64.79
2019-02-11T20:37:43.715Z,64.62
2019-02-11T20:40:18.212Z,65.85
2019-02-11T20:42:46.550Z,65.51
2019-02-11T20:45:17.672Z,65.22
2019-02-11T20:47:45.922Z,64.95
2019-02-11T20:50:14.203Z,65.07
2019-02-11T20:52:42.458Z,65.89
2019-02-11T20:55:13.081Z,66.27
2019-02-11T20:57:41.837Z,66.33
2019-02-11T21:00:16.695Z,65.99
2019-02-11T21:02:45.025Z,65.85
2019-02-11T21:05:13.394Z,66.82
2019-02-11T21:07:41.651Z,66.33
2019-02-11T21:10:12.643Z,65.87
2019-02-11T21:12:40.969Z,67.21
2019-02-11T21:15:11.781Z,67.74
2019-02-11T21:17:40.042Z,67.70
2019-02-11T21:20:17.682Z,67.13
2019-02-11T21:22:44.279Z,66.80
2019-02-11T21:25:12.568Z,67.75
2019-02-11T21:27:40.841Z,67.13
2019-02-11T21:30:13.535Z,67.46
2019-02-11T21:32:41.789Z,67.28
2019-02-11T21:35:11.383Z,67.99
2019-02-11T21:37:40.058Z,68.52
2019-02-11T21:40:08.744Z,68.19
2019-02-11T21:42:37.091Z,67.87
2019-02-11T21:45:10.938Z,68.05
2019-02-11T21:47:39.225Z,67.73
2019-02-11T21:50:16.057Z,68.00
2019-02-11T21:52:44.358Z,67.21
2019-02-11T21:55:14.759Z,68.18
2019-02-11T21:57:43.037Z,68.33
2019-02-11T22:00:14.520Z,68.18
2019-02-11T22:02:42.777Z,68.10
2019-02-11T22:05:11.031Z,68.55
2019-02-11T22:07:39.311Z,67.83
2019-02-11T22:10:10.796Z,67.77
2019-02-11T22:12:39.148Z,68.39
2019-02-11T22:15:08.882Z,68.33
2019-02-11T22:17:37.157Z,68.62
2019-02-11T22:20:11.167Z,68.54
2019-02-11T22:22:39.466Z,68.88
2019-02-11T22:25:09.759Z,68.58
2019-02-11T22:27:38.019Z,67.81
2019-02-11T22:30:09.533Z,68.75
2019-02-11T22:32:37.834Z,69.11
2019-02-11T22:35:08.836Z,68.70
2019-02-11T22:37:37.115Z,68.39
2019-02-11T22:40:07.972Z,68.45
2019-02-11T22:42:36.266Z,68.42
2019-02-11T22:45:06.746Z,67.79
2019-02-11T22:47:35.064Z,68.10
2019-02-11T22:50:04.899Z,67.70
2019-02-11T22:52:33.154Z,67.92
2019-02-11T22:55:01.450Z,67.33
2019-02-11T22:57:29.755Z,67.04
2019-02-11T22:59:58.028Z,66.81
2019-02-11T23:02:26.350Z,66.21
2019-02-11T23:04:56.012Z,66.20
2019-02-11T23:07:24.373Z,65.03
2019-02-11T23:09:52.673Z,65.66
2019-02-11T23:12:20.961Z,65.54
2019-02-11T23:14:49.266Z,65.55
2019-02-11T23:17:17.549Z,65.76
2019-02-11T23:19:45.810Z,63.60
2019-02-11T23:22:14.095Z,64.59
2019-02-11T23:24:42.351Z,64.67
2019-02-11T23:27:10.706Z,64.63
2019-02-11T23:29:38.991Z,63.77
2019-02-11T23:32:07.241Z,64.36
2019-02-11T23:34:35.514Z,64.18
2019-02-11T23:37:03.786Z,63.65
2019-02-11T23:39:32.047Z,64.34
2019-02-11T23:42:03.215Z,64.29
2019-02-11T23:44:32.817Z,64.63
2019-02-11T23:47:01.100Z,64.69
2019-02-11T23:49:29.352Z,64.85
2019-02-11T23:51:57.630Z,64.46
2019-02-11T23:54:25.879Z,64.01
2019-02-11T23:56:54.326Z,64.43
2019-02-11T23:59:22.584Z,65.15
